Time;durP1;ratioP1;P1;durP2;ratioP2;P2;SDS_P1;SDS_P2;PMS_P1;PMS_P2;Temp;Humidity;BMP_temperature;BMP_pressure;BME280_temperature;BME280_humidity;BME280_pressure;Samples;Min_cycle;Max_cycle;Signal;HPM_P1;HPM_P2
2022/12/11 00:00:50;;;;;;;28.90;8.95;;;-1.10;99.90;;;;;;5088920;28;20055;-76
2022/12/11 00:03:17;;;;;;;27.67;8.07;;;-1.10;99.90;;;;;;5070434;28;20101;-75
2022/12/11 00:05:43;;;;;;;25.92;9.20;;;-1.10;99.90;;;;;;5070879;28;20059;-74
2022/12/11 00:08:10;;;;;;;30.73;9.93;;;-1.10;99.90;;;;;;5057759;28;20139;-74
2022/12/11 00:10:35;;;;;;;;;;;-1.10;99.90;;;;;;5063590;28;20044;-74
2022/12/11 00:13:01;;;;;;;24.42;9.32;;;-1.10;99.90;;;;;;5068776;28;19920;-75
2022/12/11 00:15:27;;;;;;;30.38;9.07;;;-1.00;99.90;;;;;;5087004;28;20036;-74
2022/12/11 00:17:53;;;;;;;26.40;8.73;;;-1.00;99.90;;;;;;5084360;28;20048;-73
2022/12/11 00:20:19;;;;;;;25.02;8.60;;;-1.00;99.90;;;;;;5052367;28;20174;-73
2022/12/11 00:22:44;;;;;;;32.17;8.52;;;-0.70;99.90;;;;;;5067531;28;20137;-73
2022/12/11 00:25:10;;;;;;;26.85;8.25;;;-1.00;99.90;;;;;;5052346;28;20401;-73
2022/12/11 00:27:36;;;;;;;26.77;8.13;;;-0.90;99.90;;;;;;5066664;28;20083;-73
2022/12/11 00:30:02;;;;;;;31.73;8.40;;;-0.90;99.90;;;;;;5089379;28;20052;-73
2022/12/11 00:32:28;;;;;;;30.92;10.02;;;-0.90;99.90;;;;;;5081058;28;20045;-76
2022/12/11 00:34:53;;;;;;;37.90;9.40;;;-0.90;99.90;;;;;;5086702;28;20378;-74
2022/12/11 00:37:19;;;;;;;39.80;9.88;;;-0.90;99.90;;;;;;5055569;28;20472;-74
2022/12/11 00:39:45;;;;;;;32.63;9.27;;;-0.90;99.90;;;;;;5053021;28;20131;-74
2022/12/11 00:42:10;;;;;;;31.58;9.82;;;-0.90;99.90;;;;;;5079919;28;20526;-74
2022/12/11 00:44:36;;;;;;;42.38;10.85;;;-0.90;99.90;;;;;;5071490;28;20127;-74
2022/12/11 00:47:03;;;;;;;32.78;9.27;;;-0.90;99.90;;;;;;5072372;28;20402;-74
2022/12/11 00:49:28;;;;;;;40.88;11.15;;;-0.80;99.90;;;;;;5070749;28;20054;-77
2022/12/11 00:51:54;;;;;;;34.90;9.30;;;-0.90;99.90;;;;;;5061418;28;20608;-74
2022/12/11 00:54:20;;;;;;;37.20;9.90;;;-0.90;99.90;;;;;;5064202;28;20044;-73
2022/12/11 00:56:45;;;;;;;33.95;9.82;;;-0.80;99.90;;;;;;5071211;28;20060;-75
2022/12/11 00:59:11;;;;;;;36.35;9.98;;;-0.80;99.90;;;;;;5072223;28;20054;-73
2022/12/11 01:01:37;;;;;;;29.90;8.93;;;-0.80;99.90;;;;;;5069033;28;20055;-73
2022/12/11 01:04:03;;;;;;;34.25;9.68;;;-0.80;99.90;;;;;;5069529;28;20052;-72
2022/12/11 01:06:28;;;;;;;37.05;10.18;;;-0.80;99.90;;;;;;5051175;28;20474;-73
2022/12/11 01:11:41;;;;;;;33.70;9.43;;;-0.80;99.90;;;;;;5051261;28;20053;-73
2022/12/11 01:14:08;;;;;;;31.33;8.35;;;-0.70;99.90;;;;;;5035468;28;20048;-74
2022/12/11 01:16:34;;;;;;;29.05;8.55;;;-0.70;99.90;;;;;;5079313;28;20050;-77
2022/12/11 01:19:00;;;;;;;40.95;10.57;;;-0.70;99.90;;;;;;5069661;28;20127;-74
2022/12/11 01:21:25;;;;;;;36.90;10.48;;;-0.70;99.90;;;;;;5076114;28;20044;-74
2022/12/11 01:23:52;;;;;;;29.58;8.95;;;-0.70;99.90;;;;;;5065202;28;20799;-73
2022/12/11 01:26:18;;;;;;;35.40;8.88;;;-0.70;99.90;;;;;;5059014;28;20386;-74
2022/12/11 01:28:44;;;;;;;33.38;8.93;;;-0.70;99.90;;;;;;5055443;28;20054;-73
2022/12/11 01:31:12;;;;;;;32.95;9.00;;;-0.70;99.90;;;;;;5067723;28;20477;-73
2022/12/11 01:33:38;;;;;;;30.35;9.80;;;-0.60;99.90;;;;;;5091866;28;20105;-74
2022/12/11 01:36:13;;;;;;;38.72;10.45;;;-0.60;99.90;;;;;;5063463;28;20055;-73
2022/12/11 01:38:39;;;;;;;32.25;8.70;;;-0.60;99.90;;;;;;5057145;28;20040;-73
2022/12/11 01:41:05;;;;;;;34.45;10.30;;;-0.60;99.90;;;;;;5081425;28;20147;-74
2022/12/11 01:43:31;;;;;;;36.33;9.48;;;-0.60;99.90;;;;;;5086916;28;20138;-73
2022/12/11 01:45:57;;;;;;;37.45;10.65;;;-0.60;99.90;;;;;;5074717;28;20044;-73
2022/12/11 01:48:28;;;;;;;34.78;10.27;;;-0.60;99.90;;;;;;5075476;28;20052;-73
2022/12/11 01:51:01;;;;;;;43.25;10.18;;;-0.60;99.90;;;;;;5059623;28;20048;-74
2022/12/11 01:53:32;;;;;;;35.83;9.77;;;-0.60;99.90;;;;;;5079987;28;20651;-73
2022/12/11 01:55:58;;;;;;;36.78;9.75;;;-0.60;99.90;;;;;;5053603;28;20088;-73
2022/12/11 01:58:29;;;;;;;35.55;10.07;;;-0.60;99.90;;;;;;5055254;28;20045;-74
2022/12/11 02:00:56;;;;;;;35.17;9.88;;;-0.60;99.90;;;;;;5060799;28;20485;-72
2022/12/11 02:03:22;;;;;;;33.67;9.40;;;-0.70;99.90;;;;;;5074766;28;20060;-73
2022/12/11 02:05:48;;;;;;;37.42;10.30;;;-0.60;99.90;;;;;;5073106;28;20101;-73
2022/12/11 02:08:14;;;;;;;30.33;9.73;;;-0.50;99.90;;;;;;5091714;28;20396;-73
2022/12/11 02:10:47;;;;;;;;;;;-0.50;99.90;;;;;;5074151;28;20176;-73
2022/12/11 02:13:25;;;;;;;28.08;8.40;;;-0.60;99.90;;;;;;5067131;28;19970;-73
2022/12/11 02:15:59;;;;;;;36.80;10.25;;;-0.30;99.90;;;;;;5053787;28;20048;-73
2022/12/11 02:18:47;;;;;;;30.48;9.82;;;-0.60;99.90;;;;;;5054926;28;20090;-73
2022/12/11 02:21:25;;;;;;;37.83;9.10;;;-0.60;99.90;;;;;;5058879;28;20371;-74
2022/12/11 02:24:18;;;;;;;40.67;10.90;;;-0.60;99.90;;;;;;5073893;28;20083;-73
2022/12/11 02:27:17;;;;;;;32.65;9.45;;;-0.50;99.90;;;;;;5053847;28;20056;-74
2022/12/11 02:29:51;;;;;;;32.38;8.25;;;-0.50;99.90;;;;;;5023372;28;20059;-74
2022/12/11 02:32:52;;;;;;;27.05;8.80;;;-0.50;99.90;;;;;;5054765;28;20055;-73
2022/12/11 02:35:36;;;;;;;28.05;9.35;;;-0.50;99.90;;;;;;5027088;28;20052;-74
2022/12/11 02:38:23;;;;;;;35.33;9.07;;;-0.50;99.90;;;;;;5072378;28;20117;-77
2022/12/11 02:40:51;;;;;;;47.47;11.60;;;-0.40;99.90;;;;;;5089113;28;20040;-72
2022/12/11 02:43:18;;;;;;;32.78;9.10;;;-0.40;99.90;;;;;;5081705;28;20457;-74
2022/12/11 02:45:45;;;;;;;40.03;10.40;;;-0.40;99.90;;;;;;5084806;28;20069;-73
2022/12/11 02:48:13;;;;;;;33.45;9.20;;;-0.40;99.90;;;;;;5070901;28;20174;-73
2022/12/11 02:50:46;;;;;;;34.60;9.57;;;-0.40;99.90;;;;;;5070578;28;20055;-77
2022/12/11 02:53:16;;;;;;;38.58;11.13;;;-0.40;99.90;;;;;;5070629;28;20050;-75
2022/12/11 02:55:43;;;;;;;34.85;8.50;;;-0.40;99.90;;;;;;5076475;28;20048;-78
2022/12/11 02:58:23;;;;;;;36.10;8.95;;;-0.40;99.90;;;;;;5053290;28;20063;-73
2022/12/11 03:00:49;;;;;;;37.42;9.85;;;-0.40;99.90;;;;;;5070880;28;20486;-73
2022/12/11 03:03:15;;;;;;;32.35;9.73;;;-0.40;99.90;;;;;;5071729;28;20059;-73
2022/12/11 03:05:40;;;;;;;;;;;-0.40;99.90;;;;;;5053152;28;20056;-75
2022/12/11 03:08:06;;;;;;;30.70;9.15;;;-0.40;99.90;;;;;;5077294;28;19931;-73
2022/12/11 03:10:32;;;;;;;33.88;8.88;;;-0.40;99.90;;;;;;5090514;28;20131;-74
2022/12/11 03:12:59;;;;;;;30.05;8.63;;;-0.30;99.90;;;;;;5086509;28;20043;-74
2022/12/11 03:15:45;;;;;;;46.42;10.00;;;-0.30;99.90;;;;;;5085398;28;20086;-73
2022/12/11 03:18:29;;;;;;;28.13;8.82;;;-0.30;99.90;;;;;;5073629;28;20062;-73
2022/12/11 03:21:14;;;;;;;35.85;10.07;;;-0.30;99.90;;;;;;5088524;28;20370;-74
2022/12/11 03:23:54;;;;;;;28.05;8.88;;;-0.30;99.90;;;;;;5049923;28;20052;-74
2022/12/11 03:26:21;;;;;;;34.65;9.43;;;-0.30;99.90;;;;;;5052992;28;20596;-74
2022/12/11 03:28:46;;;;;;;33.65;9.25;;;-0.30;99.90;;;;;;5075898;28;20529;-75
2022/12/11 03:31:28;;;;;;;33.50;10.10;;;-0.30;99.90;;;;;;5053244;28;20040;-76
2022/12/11 03:33:59;;;;;;;32.72;9.02;;;-0.30;99.90;;;;;;5059758;28;20063;-74
2022/12/11 03:36:30;;;;;;;37.58;11.05;;;-0.30;99.90;;;;;;5088919;28;20056;-73
2022/12/11 03:39:00;;;;;;;33.78;10.02;;;-0.30;99.90;;;;;;5071245;28;20799;-74
2022/12/11 03:41:29;;;;;;;47.22;10.07;;;-0.30;99.90;;;;;;5071074;28;20520;-74
2022/12/11 03:43:57;;;;;;;34.92;9.23;;;-0.30;99.90;;;;;;5052710;28;20055;-76
2022/12/11 03:46:30;;;;;;;29.40;8.73;;;-0.30;99.90;;;;;;5036292;28;20042;-75
2022/12/11 03:49:01;;;;;;;33.33;9.25;;;-0.20;99.90;;;;;;5057926;28;20197;-76
2022/12/11 03:51:30;;;;;;;42.67;9.65;;;-0.30;99.90;;;;;;5068313;28;20052;-74
2022/12/11 03:53:56;;;;;;;44.70;11.43;;;-0.30;99.90;;;;;;5089977;28;20114;-74
2022/12/11 03:56:25;;;;;;;35.30;9.57;;;-0.30;99.90;;;;;;5072802;28;20071;-74
2022/12/11 03:58:51;;;;;;;39.95;10.55;;;-0.30;99.90;;;;;;5072617;28;20126;-75
2022/12/11 04:01:17;;;;;;;31.95;9.73;;;-0.30;99.90;;;;;;5072353;28;20168;-75
2022/12/11 04:03:42;;;;;;;40.67;9.90;;;-0.30;99.90;;;;;;5073151;28;20131;-75
2022/12/11 04:06:08;;;;;;;39.17;10.70;;;-0.30;99.90;;;;;;5071398;28;20052;-75
2022/12/11 04:08:34;;;;;;;31.90;9.63;;;-0.30;99.90;;;;;;5073146;28;20048;-77
2022/12/11 04:15:00;;;;;;;41.10;10.23;;;-0.30;99.90;;;;;;5073089;28;20056;-74
2022/12/11 04:16:31;;;;;;;35.58;10.45;;;-0.30;99.90;;;;;;5072762;28;20098;-75
2022/12/11 04:24:25;;;;;;;35.67;9.18;;;-0.30;99.90;;;;;;5072477;28;20059;-75
2022/12/11 04:26:50;;;;;;;43.85;11.57;;;-0.30;99.90;;;;;;5090016;28;20079;-78
2022/12/11 04:29:16;;;;;;;39.45;10.35;;;-0.30;99.90;;;;;;5072738;28;20082;-75
2022/12/11 04:31:42;;;;;;;53.97;10.93;;;-0.30;99.90;;;;;;5072807;28;20179;-75
2022/12/11 04:34:08;;;;;;;41.83;10.27;;;-0.30;99.90;;;;;;5088804;28;20101;-75
2022/12/11 04:36:33;;;;;;;54.13;12.48;;;-0.30;99.90;;;;;;5090015;28;20116;-74
2022/12/11 04:38:59;;;;;;;32.08;9.95;;;-0.30;99.90;;;;;;5089700;28;20048;-75
2022/12/11 04:41:25;;;;;;;50.10;12.82;;;-0.30;99.90;;;;;;5072348;28;20051;-74
2022/12/11 04:43:50;;;;;;;49.75;14.55;;;-0.30;99.90;;;;;;5090339;28;20449;-77
2022/12/11 04:46:19;;;;;;;43.00;12.73;;;-0.20;99.90;;;;;;5090064;28;20509;-74
2022/12/11 04:48:45;;;;;;;45.42;12.23;;;-0.30;99.90;;;;;;5072461;28;20044;-74
2022/12/11 04:51:11;;;;;;;44.38;11.50;;;-0.30;99.90;;;;;;5087726;28;20097;-74
2022/12/11 04:53:37;;;;;;;49.80;11.13;;;-0.30;99.90;;;;;;5072154;28;20135;-75
2022/12/11 04:56:08;;;;;;;49.10;10.93;;;-0.30;99.90;;;;;;5087670;28;20186;-74
2022/12/11 04:58:35;;;;;;;36.67;11.15;;;-0.30;99.90;;;;;;5072486;28;20055;-74
2022/12/11 05:01:16;;;;;;;42.95;12.10;;;-0.30;99.90;;;;;;5072486;28;20051;-74
2022/12/11 05:03:42;;;;;;;38.33;10.68;;;-0.30;99.90;;;;;;5076623;28;20055;-74
2022/12/11 05:06:09;;;;;;;44.65;11.82;;;-0.30;99.90;;;;;;5074779;28;20059;-74
2022/12/11 05:08:36;;;;;;;37.03;11.80;;;-0.30;99.90;;;;;;5094288;28;20439;-75
2022/12/11 05:11:05;;;;;;;42.67;11.07;;;-0.30;99.90;;;;;;5092379;28;20481;-73
2022/12/11 05:13:31;;;;;;;42.70;10.85;;;-0.20;99.90;;;;;;5094232;28;20044;-74
2022/12/11 05:15:57;;;;;;;34.40;11.20;;;-0.20;99.90;;;;;;5075210;28;20060;-74
2022/12/11 05:18:23;;;;;;;41.35;9.27;;;-0.20;99.90;;;;;;5094207;28;20055;-73
2022/12/11 05:21:15;;;;;;;;;;;-0.10;99.90;;;;;;5074962;28;20098;-74
2022/12/11 05:23:42;;;;;;;34.05;9.30;;;-0.10;99.90;;;;;;5054258;28;20280;-75
2022/12/11 05:26:14;;;;;;;42.67;10.60;;;-0.20;99.90;;;;;;5092034;28;20059;-74
2022/12/11 05:28:40;;;;;;;34.65;10.82;;;-0.10;99.90;;;;;;5076137;28;20083;-76
2022/12/11 05:31:07;;;;;;;;;;;-0.10;99.90;;;;;;5093528;28;20047;-75
2022/12/11 05:33:33;;;;;;;38.03;9.75;;;-0.10;99.90;;;;;;5093081;28;19924;-74
2022/12/11 05:35:59;;;;;;;28.25;9.48;;;-0.10;99.90;;;;;;5091984;28;20101;-74
2022/12/11 05:38:25;;;;;;;34.30;8.50;;;-0.10;99.90;;;;;;5075883;28;20083;-74
2022/12/11 05:41:02;;;;;;;33.53;10.20;;;-0.10;99.90;;;;;;5092982;28;20055;-75
2022/12/11 05:43:30;;;;;;;39.75;10.23;;;-0.10;99.90;;;;;;5075780;28;20055;-75
2022/12/11 05:46:07;;;;;;;34.70;10.80;;;-0.10;99.90;;;;;;5073759;28;20060;-78
2022/12/11 05:48:33;;;;;;;;;;;-0.10;99.90;;;;;;5076044;28;20397;-74
2022/12/11 05:51:01;;;;;;;37.17;9.70;;;-0.10;99.90;;;;;;5073159;28;19999;-73
2022/12/11 05:53:27;;;;;;;36.58;9.88;;;-0.20;99.90;;;;;;5092569;28;20056;-74
2022/12/11 05:55:53;;;;;;;40.70;10.27;;;-0.10;99.90;;;;;;5091175;28;20552;-76
2022/12/11 05:58:19;;;;;;;37.45;10.85;;;-0.20;99.90;;;;;;5091879;28;20119;-74
2022/12/11 06:00:45;;;;;;;;;;;-0.10;99.90;;;;;;5075539;28;20132;-74
2022/12/11 06:03:10;;;;;;;34.58;9.50;;;-0.20;99.90;;;;;;5092517;28;20032;-75
2022/12/11 06:05:40;;;;;;;38.65;9.55;;;-0.20;99.90;;;;;;5072955;28;20101;-74
2022/12/11 06:08:06;;;;;;;36.33;9.48;;;-0.20;99.90;;;;;;5074689;28;20052;-74
2022/12/11 06:10:32;;;;;;;32.78;9.80;;;-0.10;99.90;;;;;;5074700;28;20055;-74
2022/12/11 06:12:58;;;;;;;38.85;11.07;;;-0.20;99.90;;;;;;5076113;28;20045;-78
2022/12/11 06:15:23;;;;;;;39.47;10.50;;;-0.20;99.90;;;;;;5057068;28;20048;-74
2022/12/11 06:17:49;;;;;;;39.97;10.77;;;-0.20;99.90;;;;;;5093066;28;20055;-74
2022/12/11 06:20:15;;;;;;;46.65;11.40;;;-0.20;99.90;;;;;;5056823;28;20131;-74
2022/12/11 06:22:40;;;;;;;32.00;9.73;;;-0.10;99.90;;;;;;5092861;28;20052;-74
2022/12/11 06:25:06;;;;;;;26.33;9.48;;;-0.10;99.90;;;;;;5091021;28;20083;-74
2022/12/11 06:27:32;;;;;;;31.88;9.43;;;-0.20;99.90;;;;;;5092451;28;20043;-74
2022/12/11 06:29:58;;;;;;;33.40;8.57;;;-0.10;99.90;;;;;;5091378;28;20054;-76
2022/12/11 06:32:23;;;;;;;40.88;10.07;;;-0.10;99.90;;;;;;5073885;28;20509;-74
2022/12/11 06:34:49;;;;;;;35.65;9.70;;;-0.10;99.90;;;;;;5091733;28;20062;-73
2022/12/11 06:37:15;;;;;;;32.50;9.45;;;-0.10;99.90;;;;;;5091135;28;20063;-73
2022/12/11 06:39:40;;;;;;;33.60;9.82;;;-0.10;99.90;;;;;;5057542;28;20070;-74
2022/12/11 06:42:06;;;;;;;38.63;9.85;;;-0.10;99.90;;;;;;5073593;28;20091;-74
2022/12/11 06:44:32;;;;;;;42.55;10.70;;;-0.20;99.90;;;;;;5083955;28;20553;-74
2022/12/11 06:46:57;;;;;;;35.72;9.93;;;-0.10;99.90;;;;;;5054333;28;20505;-75
2022/12/11 06:49:23;;;;;;;33.78;9.38;;;0.20;99.90;;;;;;5058962;28;20051;-74
2022/12/11 06:51:49;;;;;;;36.17;10.70;;;-0.20;99.90;;;;;;5092172;28;20110;-74
2022/12/11 06:54:14;;;;;;;36.67;10.52;;;-0.10;99.90;;;;;;5091259;28;20128;-74
2022/12/11 06:56:40;;;;;;;38.85;11.73;;;-0.20;99.90;;;;;;5091111;28;20055;-74
2022/12/11 06:59:06;;;;;;;43.50;12.70;;;-0.20;99.90;;;;;;5073637;28;20056;-74
2022/12/11 07:01:32;;;;;;;29.75;9.90;;;-0.10;99.90;;;;;;5073870;28;20056;-74
2022/12/11 07:03:58;;;;;;;39.08;10.48;;;-0.10;99.90;;;;;;5074003;28;20093;-75
2022/12/11 07:06:26;;;;;;;35.53;10.93;;;-0.10;99.90;;;;;;5072692;28;20052;-74
2022/12/11 07:08:52;;;;;;;43.85;10.98;;;-0.20;99.90;;;;;;5091538;28;20080;-74
2022/12/11 07:11:19;;;;;;;37.35;10.18;;;-0.10;99.90;;;;;;5072992;28;20047;-74
2022/12/11 07:13:45;;;;;;;34.60;10.10;;;-0.10;99.90;;;;;;5073966;28;20063;-73
2022/12/11 07:16:12;;;;;;;32.60;10.02;;;-0.10;99.90;;;;;;5091055;28;20044;-74
2022/12/11 07:18:46;;;;;;;40.17;10.63;;;-0.10;99.90;;;;;;5091803;28;20052;-75
2022/12/11 07:21:12;;;;;;;35.17;10.80;;;-0.10;99.90;;;;;;5071665;28;20048;-74
2022/12/11 07:23:39;;;;;;;34.38;9.98;;;-0.10;99.90;;;;;;5073153;28;20105;-76
2022/12/11 07:26:06;;;;;;;37.15;10.45;;;0.00;99.90;;;;;;5090783;28;20048;-78
2022/12/11 07:28:33;;;;;;;32.80;9.55;;;-0.10;99.90;;;;;;5073826;28;20392;-74
2022/12/11 07:30:59;;;;;;;39.55;9.65;;;-0.10;99.90;;;;;;5073438;28;20536;-73
2022/12/11 07:33:24;;;;;;;37.00;10.65;;;-0.10;99.90;;;;;;5073088;28;20123;-75
2022/12/11 07:35:50;;;;;;;34.83;9.90;;;-0.10;99.90;;;;;;5090236;28;20051;-73
2022/12/11 07:38:16;;;;;;;35.00;9.52;;;-0.10;99.90;;;;;;5091072;28;20079;-74
2022/12/11 07:40:41;;;;;;;38.67;9.77;;;-0.10;99.90;;;;;;5072641;28;20044;-73
2022/12/11 07:43:07;;;;;;;40.63;11.15;;;-0.10;99.90;;;;;;5072175;28;20044;-79
2022/12/11 07:45:33;;;;;;;32.20;10.23;;;-0.10;99.90;;;;;;5072927;28;20043;-73
2022/12/11 07:47:58;;;;;;;39.28;10.95;;;0.00;99.90;;;;;;5090368;28;20080;-74
2022/12/11 07:50:24;;;;;;;42.47;10.05;;;-0.10;99.90;;;;;;5081081;28;20059;-73
2022/12/11 07:52:50;;;;;;;39.22;11.70;;;0.00;99.90;;;;;;5090827;28;20052;-73
2022/12/11 07:55:15;;;;;;;35.80;10.32;;;-0.10;99.90;;;;;;5074312;28;20051;-75
2022/12/11 07:57:41;;;;;;;37.90;9.48;;;0.00;99.90;;;;;;5070497;28;20278;-73
2022/12/11 08:00:07;;;;;;;38.97;9.90;;;0.00;99.90;;;;;;5070797;28;20052;-78
2022/12/11 08:02:33;;;;;;;40.22;10.93;;;0.00;99.90;;;;;;5090481;28;20060;-72
2022/12/11 08:04:58;;;;;;;31.05;9.63;;;0.10;99.90;;;;;;5089870;28;20538;-71
2022/12/11 08:07:24;;;;;;;33.42;10.00;;;0.10;99.90;;;;;;5090398;28;20071;-73
2022/12/11 08:09:50;;;;;;;46.92;11.18;;;0.10;99.90;;;;;;5090732;28;20067;-73
2022/12/11 08:12:15;;;;;;;40.72;11.10;;;0.10;99.90;;;;;;5089993;28;20044;-71
2022/12/11 08:14:41;;;;;;;38.17;10.05;;;0.10;99.90;;;;;;5090755;28;20086;-70
2022/12/11 08:17:09;;;;;;;39.22;10.90;;;0.10;99.90;;;;;;5090769;28;20055;-74
2022/12/11 08:19:35;;;;;;;29.77;10.00;;;0.10;99.90;;;;;;5081426;28;20040;-70
2022/12/11 08:22:00;;;;;;;38.13;10.25;;;0.00;99.90;;;;;;5070379;28;20482;-70
2022/12/11 08:24:26;;;;;;;32.25;8.60;;;0.00;99.90;;;;;;5069713;28;20457;-70
2022/12/11 08:26:52;;;;;;;34.20;9.88;;;0.00;99.90;;;;;;5082550;28;20426;-70
2022/12/11 08:29:17;;;;;;;41.17;10.02;;;0.00;99.90;;;;;;5089875;28;20482;-71
2022/12/11 08:31:43;;;;;;;43.42;9.82;;;0.00;99.90;;;;;;5090658;28;20048;-70
2022/12/11 08:34:12;;;;;;;33.88;10.40;;;0.00;99.90;;;;;;5089869;28;20044;-74
2022/12/11 08:36:38;;;;;;;37.28;9.75;;;0.00;99.90;;;;;;5092366;28;20078;-70
2022/12/11 08:39:04;;;;;;;31.85;9.25;;;0.10;99.90;;;;;;5094331;28;20481;-70
2022/12/11 08:41:29;;;;;;;36.35;10.02;;;0.00;99.90;;;;;;5075976;28;20047;-71
2022/12/11 08:43:57;;;;;;;31.65;9.27;;;0.00;99.90;;;;;;5064765;28;20059;-71
2022/12/11 08:46:26;;;;;;;36.90;8.95;;;0.00;99.90;;;;;;5075746;28;20059;-70
2022/12/11 08:48:53;;;;;;;40.22;10.90;;;0.00;99.90;;;;;;5093326;28;20147;-71
2022/12/11 08:51:23;;;;;;;33.17;9.98;;;0.20;99.90;;;;;;5074313;28;20047;-70
2022/12/11 08:53:50;;;;;;;36.33;9.85;;;0.00;99.90;;;;;;5075760;28;20135;-70
2022/12/11 08:56:18;;;;;;;45.67;10.27;;;-0.10;99.90;;;;;;5071071;28;20052;-71
2022/12/11 08:58:44;;;;;;;41.47;10.63;;;0.00;99.90;;;;;;5093266;28;20043;-70
2022/12/11 09:01:21;;;;;;;36.30;10.80;;;0.00;99.90;;;;;;5093249;28;20048;-72
2022/12/11 09:03:48;;;;;;;37.45;10.48;;;0.00;99.90;;;;;;5093967;28;20063;-72
2022/12/11 09:06:17;;;;;;;33.65;9.18;;;0.00;99.90;;;;;;5092623;28;20061;-73
2022/12/11 09:08:44;;;;;;;37.13;10.95;;;0.00;99.90;;;;;;5093859;28;20048;-73
2022/12/11 09:11:13;;;;;;;39.60;10.18;;;0.00;99.90;;;;;;5089460;28;20467;-70
2022/12/11 09:13:39;;;;;;;37.70;11.20;;;0.00;99.90;;;;;;5093131;28;20070;-69
2022/12/11 09:16:09;;;;;;;;;;;0.00;99.90;;;;;;5092298;28;20048;-70
2022/12/11 09:18:36;;;;;;;32.33;9.38;;;0.10;99.90;;;;;;5090155;28;20481;-71
2022/12/11 09:21:08;;;;;;;33.58;9.85;;;0.10;99.90;;;;;;5083068;28;20087;-69
2022/12/11 09:23:33;;;;;;;37.05;9.38;;;0.10;99.90;;;;;;5092900;28;20662;-70
2022/12/11 09:26:02;;;;;;;36.50;8.82;;;0.20;99.90;;;;;;5091790;28;20127;-73
2022/12/11 09:28:28;;;;;;;41.72;10.13;;;0.10;99.90;;;;;;5090937;28;20449;-70
2022/12/11 09:30:53;;;;;;;35.63;8.93;;;0.20;99.90;;;;;;5091115;28;20082;-70
2022/12/11 09:33:19;;;;;;;37.63;9.40;;;0.10;99.90;;;;;;5073129;28;20028;-69
2022/12/11 09:35:45;;;;;;;43.92;10.57;;;0.20;99.90;;;;;;5089499;28;20102;-70
2022/12/11 09:38:10;;;;;;;37.60;12.13;;;0.20;99.90;;;;;;5092035;28;20040;-71
2022/12/11 09:40:41;;;;;;;35.08;10.40;;;0.20;99.90;;;;;;5090595;28;20787;-70
2022/12/11 09:43:41;;;;;;;39.47;9.52;;;0.20;99.90;;;;;;5072929;28;20471;-70
2022/12/11 09:46:12;;;;;;;31.55;9.10;;;0.20;99.90;;;;;;5084141;28;20032;-69
2022/12/11 09:48:40;;;;;;;35.78;10.88;;;0.20;99.90;;;;;;5091854;28;20039;-70
2022/12/11 09:51:25;;;;;;;35.80;10.43;;;0.20;99.90;;;;;;5090810;28;20167;-70
2022/12/11 09:53:53;;;;;;;28.23;8.90;;;0.20;99.90;;;;;;5092518;28;20036;-70
2022/12/11 09:56:22;;;;;;;41.00;10.15;;;0.20;99.90;;;;;;5090342;28;20093;-70
2022/12/11 09:59:26;;;;;;;35.78;10.23;;;0.20;99.90;;;;;;5088503;28;20078;-70
2022/12/11 10:02:13;;;;;;;32.17;9.23;;;0.20;99.90;;;;;;5092898;28;20109;-69
2022/12/11 10:05:04;;;;;;;33.28;9.75;;;0.30;99.90;;;;;;5091720;28;20048;-70
2022/12/11 10:07:44;;;;;;;36.35;9.82;;;0.20;99.90;;;;;;5070977;28;20085;-71
2022/12/11 10:11:01;;;;;;;32.20;9.20;;;0.30;99.90;;;;;;5091018;28;20385;-70
2022/12/11 10:13:38;;;;;;;32.88;10.35;;;0.30;99.90;;;;;;5051417;28;20142;-71
2022/12/11 10:16:38;;;;;;;35.38;9.80;;;0.40;99.90;;;;;;5092908;28;20144;-69
2022/12/11 10:19:04;;;;;;;30.30;9.25;;;0.30;99.90;;;;;;5074749;28;20055;-70
2022/12/11 10:21:38;;;;;;;34.60;9.43;;;0.30;99.90;;;;;;5073517;28;20083;-75
2022/12/11 10:24:14;;;;;;;31.83;8.77;;;0.30;99.90;;;;;;5092416;28;20052;-72
2022/12/11 10:26:41;;;;;;;33.25;8.80;;;0.30;99.90;;;;;;5086329;28;20047;-73
2022/12/11 10:29:13;;;;;;;32.10;10.40;;;0.30;99.90;;;;;;5087720;28;20055;-70
2022/12/11 10:31:42;;;;;;;34.67;10.48;;;0.40;99.90;;;;;;5087287;28;20807;-76
2022/12/11 10:34:16;;;;;;;29.67;8.90;;;0.30;99.90;;;;;;5070116;28;20661;-75
2022/12/11 10:36:42;;;;;;;34.28;10.63;;;0.40;99.90;;;;;;5055967;28;20044;-69
2022/12/11 10:39:17;;;;;;;29.38;9.73;;;0.40;99.90;;;;;;5080424;28;20581;-68
2022/12/11 10:41:45;;;;;;;36.10;9.70;;;0.30;99.90;;;;;;5080191;28;20443;-69
2022/12/11 10:44:30;;;;;;;28.58;9.93;;;0.40;99.90;;;;;;5082308;28;20040;-77
2022/12/11 10:47:10;;;;;;;31.05;9.07;;;0.40;99.90;;;;;;5081748;28;20067;-70
2022/12/11 10:49:37;;;;;;;27.25;9.70;;;0.30;99.90;;;;;;5084051;28;20055;-69
2022/12/11 10:52:20;;;;;;;36.55;11.10;;;0.30;99.90;;;;;;5086182;28;20116;-71
2022/12/11 10:54:53;;;;;;;36.05;11.02;;;0.30;99.90;;;;;;5081350;28;20040;-69
2022/12/11 10:57:30;;;;;;;29.85;9.73;;;0.30;99.90;;;;;;5082237;28;20040;-68
2022/12/11 10:59:58;;;;;;;39.30;10.27;;;0.40;99.90;;;;;;5081007;28;20051;-69
2022/12/11 11:02:39;;;;;;;33.22;9.50;;;0.40;99.90;;;;;;5080096;28;20055;-75
2022/12/11 11:05:16;;;;;;;34.72;9.43;;;0.40;99.90;;;;;;5079421;28;20044;-71
2022/12/11 11:07:42;;;;;;;30.83;9.32;;;0.40;99.90;;;;;;5070373;28;20056;-76
2022/12/11 11:10:11;;;;;;;29.98;10.18;;;0.40;99.90;;;;;;5071891;28;20044;-72
2022/12/11 11:12:48;;;;;;;31.15;9.52;;;0.40;99.90;;;;;;5085672;28;20137;-71
2022/12/11 11:15:21;;;;;;;34.47;9.63;;;0.40;99.90;;;;;;5080952;28;20047;-72
2022/12/11 11:17:52;;;;;;;32.00;10.20;;;0.40;99.90;;;;;;5089258;28;20059;-72
2022/12/11 11:20:22;;;;;;;30.35;9.90;;;0.40;99.90;;;;;;5087818;28;20147;-69
2022/12/11 11:22:54;;;;;;;29.67;9.05;;;0.40;99.90;;;;;;5079663;28;20093;-69
2022/12/11 11:25:23;;;;;;;37.72;10.00;;;0.50;99.90;;;;;;5080184;28;20047;-71
2022/12/11 11:28:01;;;;;;;38.05;10.73;;;0.40;99.90;;;;;;5079228;28;20888;-71
2022/12/11 11:30:30;;;;;;;24.65;8.35;;;0.50;99.90;;;;;;5069705;28;20048;-72
2022/12/11 11:33:01;;;;;;;29.10;8.68;;;0.50;99.90;;;;;;5071438;28;20190;-68
2022/12/11 11:35:29;;;;;;;34.20;9.88;;;0.50;99.90;;;;;;5086660;28;20067;-72
2022/12/11 11:38:01;;;;;;;30.92;9.15;;;0.50;99.90;;;;;;5063707;28;20048;-68
2022/12/11 11:40:39;;;;;;;31.33;9.02;;;0.50;99.90;;;;;;5070771;28;20079;-69
2022/12/11 11:43:29;;;;;;;27.23;9.20;;;0.50;99.90;;;;;;5075416;28;20079;-69
2022/12/11 11:46:07;;;;;;;29.05;9.32;;;0.50;99.90;;;;;;5082442;28;20512;-69
2022/12/11 11:48:59;;;;;;;28.88;8.68;;;0.60;99.90;;;;;;5082792;28;20048;-69
2022/12/11 11:51:38;;;;;;;30.35;8.98;;;0.50;99.90;;;;;;5075991;28;20406;-68
2022/12/11 11:54:27;;;;;;;36.85;9.55;;;0.50;99.90;;;;;;5083231;28;20044;-69
2022/12/11 11:56:55;;;;;;;29.17;8.95;;;0.50;99.90;;;;;;5083222;28;20136;-69
2022/12/11 11:59:53;;;;;;;35.22;9.20;;;0.50;99.90;;;;;;5089801;28;20036;-70
2022/12/11 12:02:19;;;;;;;33.80;10.00;;;0.50;99.90;;;;;;5071592;28;20060;-69
2022/12/11 12:04:45;;;;;;;;;;;0.50;99.90;;;;;;5071200;28;20071;-69
2022/12/11 12:07:38;;;;;;;33.33;9.60;;;0.50;99.90;;;;;;5063688;28;19920;-68
2022/12/11 12:10:21;;;;;;;27.42;8.25;;;0.50;99.90;;;;;;5080593;28;20077;-69
2022/12/11 12:13:26;;;;;;;31.50;9.23;;;0.50;99.90;;;;;;5079946;28;20044;-69
2022/12/11 12:15:58;;;;;;;29.95;9.35;;;0.50;99.90;;;;;;5061746;28;20063;-69
2022/12/11 12:18:58;;;;;;;34.47;8.73;;;0.40;99.90;;;;;;5081412;28;20045;-69
2022/12/11 12:21:34;;;;;;;32.15;9.05;;;0.50;99.90;;;;;;5065935;28;20043;-68
2022/12/11 12:24:21;;;;;;;25.50;9.27;;;0.50;99.90;;;;;;5081850;28;20101;-69
2022/12/11 12:27:22;;;;;;;30.67;9.25;;;0.50;99.90;;;;;;5068717;28;20067;-69
2022/12/11 12:30:02;;;;;;;32.65;9.48;;;0.50;99.90;;;;;;5087045;28;20051;-70
2022/12/11 12:33:07;;;;;;;34.42;9.02;;;0.50;99.90;;;;;;5087706;28;20048;-69
2022/12/11 12:35:40;;;;;;;35.88;9.52;;;0.40;99.90;;;;;;5087075;28;20453;-70
2022/12/11 12:38:14;;;;;;;36.95;9.88;;;0.50;99.90;;;;;;5087991;28;20052;-68
2022/12/11 12:40:51;;;;;;;29.70;9.38;;;0.40;99.90;;;;;;5087386;28;20040;-68
2022/12/11 12:43:44;;;;;;;30.08;9.45;;;0.50;99.90;;;;;;5085116;28;20056;-69
2022/12/11 12:46:38;;;;;;;35.97;11.00;;;0.40;99.90;;;;;;5087922;28;20039;-68
2022/12/11 12:49:11;;;;;;;37.13;10.57;;;0.40;99.90;;;;;;5087211;28;20128;-70
2022/12/11 12:51:39;;;;;;;34.97;10.60;;;0.40;99.90;;;;;;5067830;28;20552;-72
2022/12/11 12:54:08;;;;;;;36.30;11.57;;;0.40;99.90;;;;;;5069003;28;20044;-69
2022/12/11 12:56:36;;;;;;;45.08;12.45;;;0.50;99.90;;;;;;5073420;28;20541;-69
2022/12/11 12:59:01;;;;;;;38.65;10.95;;;0.40;99.90;;;;;;5081644;28;20104;-68
2022/12/11 13:01:30;;;;;;;40.47;12.00;;;0.50;99.90;;;;;;5092668;28;20040;-68
2022/12/11 13:04:04;;;;;;;41.70;12.77;;;0.50;99.90;;;;;;5089949;28;20060;-70
2022/12/11 13:06:41;;;;;;;38.22;11.30;;;0.50;99.90;;;;;;5087029;28;20111;-69